Ashburn, Missouri
Current Conditions -  °F | °C
As of 8:35 PM on Tuesday 25 Nov 2014 (Local Time) from KPPQ Reporting Station
Clear Clear  
Wind Chill: -2°   Ceiling: Unl
Heat Index: -2°   Visibility: 10mi
Dew Point: -4°   Wind: 0mph
Humidity: 84%   Direction: NA
Pressure: 30.17"   Gusts: NA
Location:  39.54°N, 91.17°W
Report Text: KPPQ 260235Z AUTO 00000KT 10SM CLR M01/M04 A3017 RMK AO2 T10151039 PWINO
Loading
Personal Weather Stations






























Interactive Weather Map New forecast layout! Learn more

10-Day Weather Forecast

Advertisements
Track Severe Weather on mobile